Yorkshire, NY

6:17 PM EST on February 07, 2016 (GMT -0500)
Sardinia, NY | | Change Station
CLOSE
Current Station
Personal Weather Station
Location: Chaffee, NY
Elevation: 1414 ft
Nearby Weather Stations

Elev 1414 ft 42.54 °N, 78.50 °W | Updated 6 seconds ago

Mostly Cloudy
Mostly Cloudy
35.6 °F
Feels Like 36 °F
N
0.0
Wind Variable Wind from North
Gusts 2.7 mph

Today
High -- | Low -- °F
--% Chance of Precip.
Yesterday
High -- | Low -- °F
Precip. -- in
Pressure 29.89 in
Visibility 10.0 miles
Clouds Scattered Clouds 4800 ft
Windchill 36 °F
Dew Point 26 °F
Humidity 68%
Rainfall 0.00 in
Snow Depth Not available.
7:21 AM 5:34 PM
Waning Crescent, 1% visible
METAR KOLE 072255Z AUTO 18003KT 10SM SCT048 03/M05 A2989 RMK AO2
Pressure 29.89 in
Visibility 10.0 miles
Clouds Scattered Clouds 4800 ft
Windchill 36 °F
Dew Point 26 °F
Humidity 68%
Rainfall 0.00 in
Snow Depth Not available.
7:21 AM 5:34 PM
Waning Crescent, 1% visible
METAR KOLE 072255Z AUTO 18003KT 10SM SCT048 03/M05 A2989 RMK AO2

10-Day Weather Forecast

Almanac

Astronomy

Feb. 07, 2016 Rise Set
Actual Time
Civil Twilight
Nautical Twilight
Astronomical Twilight
Moon
Length of Visible Light
Length of Day
Tomorrow will be .
, % of the Moon is Illuminated

Today's Extremes

State Highs State Lows

Community

WunderPhotos

Upload Photos

1,891,325 photos uploaded!

WunderBlog® & News

Nearby

Air Quality

  Air Quality AQ Index Pollutant
Not available.

Snow Depth

Station Depth Elevation

Earthquake Activity

City Distance Mag. Time & Date
Minimum magnitude displayed is 2.5.

Coastal Water Temperatures

Place Temperature

Stations

Nearby Weather Stations

Station Location Temp. Windchill Dew Point Humidity Wind Precip. Elev Updated Type
                   

Watches & Warnings

There are currently no watches in effect.